Station info - map view · info · telemetry · weather · raw · status · beacons · messages · bulletins · browse · moving · my account
Callsign, ship name or locator: Clear       
It is possible to search using wildcards (*?) after a prefix. Example: OH*
APRS station KB1LTW-9 - show graphs
Map loading...
Comment: 146.850MHz
Mic-E message: Off duty
Location: 41°14.20' N 73°13.07' W - locator FN31JF36UT - show map - static map
1.0 miles Southwest bearing 244° from Trumbull, Fairfield County, Connecticut, United States [?]
4.9 miles North bearing 352° from Bridgeport, Fairfield County, Connecticut, United States
54.7 miles Northeast bearing 48° from New York City, New York, United States
55.6 miles Northeast bearing 43° from Brooklyn, Kings County, New York, United States
Last position: 2021-06-19 19:58:07 EDT (9h40m ago)
2021-06-19 19:58:07 EDT local time at Trumbull, United States [?]
Altitude: 351 ft
Course: 159°
Speed: 0 MPH
Device: Kenwood: TM-D710 (rig)
Last path: KB1LTW-9>TQQT2P via WIDE1-1,WIDE2-1,qAR,KB1LTW-10 (good)
Positions stored: 37990
Packet rate: 316 seconds between packets on average during 1896 seconds.
Other SSIDs: KB1LTW-10 KB1LTW-4 KB1LTW-7
Stations near current position of KB1LTW-9 - show more
callsign distance last heard - EDT      callsign distance last heard - EDT
KB1LTW-101.7 miles 208°2021-06-20 04:59:52 K1MJM-102.1 miles 77°2021-05-31 01:02:27
W1SP-83.1 miles 171°2021-06-20 04:40:45 KM2DX-94.2 miles 205°2021-06-15 11:39:47
NE1CU-94.3 miles 109°2021-06-19 18:33:12 DW46414.7 miles 120°2021-06-20 05:35:09
N1BDF-105.0 miles 6°2021-06-20 05:33:06 NE1CU-15.1 miles 114°2021-06-20 04:26:32
DW13045.5 miles 42°2021-06-20 05:31:36 FW18375.8 miles 200°2021-06-20 05:33:34
WD1CRS C5.8 miles 26°2021-06-20 05:36:56 WD1CRS-C5.8 miles 26°2021-06-20 05:37:06
W1RPG6.0 miles 15°2021-06-18 20:19:16 ND1M6.3 miles 105°2021-06-16 19:13:17
ND1M C6.3 miles 105°2021-05-22 06:38:37 ND1M-C6.3 miles 105°2021-05-22 06:38:47
N6HKD6.5 miles 188°2021-06-20 05:31:15 KC1EYD-96.6 miles 5°2021-06-19 20:00:34
K1IC6.7 miles 191°2021-06-18 01:32:17 EW49447.1 miles 90°2021-06-20 05:35:58
Stations which heard KB1LTW-9 directly on radio –
callsign pkts first heard - EDT last heard longest (tx => rx) longest at - EDT
N2MH-15 2 2021-06-07 16:18:47 2021-06-07 16:48:30 FN31BB > FN20UT 27.0 miles 225° 2021-06-07 16:48:30
W2AEE 1 2021-06-07 16:27:50 2021-06-07 16:27:50 FN21VA > FN30AT 19.7 miles 142° 2021-06-07 16:27:50
WB2ZII-15 1 2021-06-07 16:45:33 2021-06-07 16:45:33 FN31AC > FN31CG 14.1 miles 27° 2021-06-07 16:45:33
W3VO-1 5 2021-06-07 11:45:49 2021-06-07 12:40:10 FN00WS > FN00SN 22.4 miles 234° 2021-06-07 12:40:10
KB3EJM-11 6 2021-06-07 14:58:36 2021-06-07 15:15:38 FN21GB > FN21HB 4.2 miles 119° 2021-06-07 14:58:36
K2PUT-15 1 2021-06-10 08:34:16 2021-06-10 08:34:16 FN31IK > FN31DL 21.4 miles 278° 2021-06-10 08:34:16
W2LV-3 1 2021-06-07 15:45:41 2021-06-07 15:45:41 FN20NW > FN21OE 19.5 miles 17° 2021-06-07 15:45:41
W3NEP-1 4 2021-06-07 14:06:30 2021-06-07 14:47:35 FN11SA > FN21BE 33.8 miles 71° 2021-06-07 14:06:30
KC3AWP-10 6 2021-06-07 13:46:29 2021-06-07 14:12:32 FN11TA > FN11ME 33.6 miles 290° 2021-06-07 14:12:32
N3DXC-2 5 2021-06-07 10:58:52 2021-06-07 11:33:47 FN00RK > FN00MT 31.6 miles 318° 2021-06-07 11:33:47
KC3FIT-1 1 2021-06-07 14:00:30 2021-06-07 14:00:30 FN11QA > FN10PV 8.6 miles 211° 2021-06-07 14:00:30
WASHCT 3 2021-06-10 08:26:16 2021-06-19 19:32:32 FN31JG > FN31HP 24.5 miles 347° 2021-06-19 19:32:32
NE1CU-10 23 2021-06-07 17:59:55 2021-06-18 14:53:33 FN31JF > FN31LF 10.9 miles 87° 2021-06-07 17:59:55
NE1CU-1 1 2021-06-18 15:02:41 2021-06-18 15:02:41 FN31JF > FN31KE 3.7 miles 127° 2021-06-18 15:02:41
K3ROG-10 2 2021-06-07 12:59:26 2021-06-07 13:11:25 FN10EX > FN10BT 16.7 miles 223° 2021-06-07 13:11:25
N3UXK-11 2 2021-06-07 16:06:42 2021-06-07 16:09:44 FN20SU > FN20VV 13.8 miles 83° 2021-06-07 16:06:42
KB1LTW-10 32 2021-06-07 17:26:42 2021-06-19 19:58:07 FN31GD > FN31JF 13.1 miles 64° 2021-06-07 17:26:42
KB3FCZ-2 7 2021-06-07 10:05:12 2021-06-07 10:55:50 FN00JK > FN00AI 38.8 miles 262° 2021-06-07 10:55:50
N2ACF-3 1 2021-06-07 16:45:31 2021-06-07 16:45:31 FN31AC > FN21XF 11.6 miles 322° 2021-06-07 16:45:31
N2KLC-4 1 2021-06-07 16:33:53 2021-06-07 16:33:53 FN21WC > FN21RK 31.1 miles 316° 2021-06-07 16:33:53
N2ACF-2 1 2021-06-07 16:33:55 2021-06-07 16:33:55 FN21WC > FN21VD 3.0 miles 339° 2021-06-07 16:33:55
KD2AAX-10 2 2021-06-07 15:57:42 2021-06-07 16:03:43 FN20QV > FN21SA 12.9 miles 54° 2021-06-07 15:57:42
N2WH 2 2021-06-07 16:03:46 2021-06-07 16:15:47 FN20SV > FN20TV 4.5 miles 87° 2021-06-07 16:03:46
W3KWH-10 1 2021-06-07 09:56:35 2021-06-07 09:56:35 EN90XK > EN90WK 7.1 miles 266° 2021-06-07 09:56:35

Only position packets which were originated by the station are shown here. The range statistics show some extra long hops, because some digipeaters do not correctly add themselves to the digipeater path. Please check the raw packets.
About this site
This page shows real-time information collected from the Automatic Position Reporting System Internet network (APRS-IS). APRS is used by amateur (ham) radio operators to transmit real-time position information, weather data, telemetry and messages over the radio. A vehicle equipped with a GPS receiver, a VHF transmitter or HF transceiver and a small computer device called a tracker transmits it's location, speed and course in a small data packet, which is then received by a nearby iGate receiving site which forwards the packet on the Internet. Systems connected to the Internet can send information on the APRS-IS without a radio transmitter, or collect and display information transmitted anywhere in the world.
User guide · FAQ · Blog · Discussion group · Linking to aprs.fi · AIS sites · Service status · Database statistics · Advertising on aprs.fi · Technical details · API · Change log · Planned changes · Credits and thanks · Terms Of Service · iPhone/iPad APRS